x

8454000 - Providence, Ri (foxr1) Weather Station

8:54 - Fri 24th Oct 2014 All times are EDT. -4 hours from GMT.

  • Wind
    11mph, 16mph gusts
  • Sea Temp 61°f
  • Ar Temp 52°f
  • Sea Pressure 1005.2mb
  • 8454000 - Providence, Ri
  • 8454000 - Providence, Ri

More Historic Weather Station data

Upgrade to MSW Pro to gain access to the past 30 days of data for over 8000 Wavebouys and Weather Stations around the globe.

Join Pro

Comparision Forecast

View Surf forecast
   
Sex 10/24 8:54 11 16 mph 1005.2mb 61f 52f
8:48 9 16 mph 1005.1mb 61f 52f
8:42 10 16 mph 1005.1mb 61f 52f
8:36 10 15 mph 1005.1mb 61f 52f
8:30 10 17 mph 1005.1mb 61f 52f
8:24 10 16 mph 1005mb 61f 52f
8:18 9 14 mph 1005mb 61f 52f
8:12 9 16 mph 1004.9mb 61f 52f
8:06 10 17 mph 1004.8mb 61f 52f
8:00 13 15 mph 1004.7mb 61f 51f
7:54 8 14 mph 1004.7mb 61f 51f
7:48 11 16 mph 1004.6mb 61f 51f
7:42 10 14 mph 1004.6mb 61f 51f
7:36 11 16 mph 1004.6mb 61f 51f
7:30 8 15 mph 1004.6mb 61f 51f
7:24 11 15 mph 1004.6mb 61f 52f
7:18 13 17 mph 1004.5mb 61f 52f
7:12 11 16 mph 1004.5mb 61f 52f
7:06 10 15 mph 1004.5mb 61f 52f
7:00 10 17 mph 1004.5mb 61f 52f
6:54 11 16 mph 1004.4mb 61f 52f
6:48 9 14 mph 1004.3mb 61f 52f
6:42 9 13 mph 1004.3mb 61f 52f
6:36 10 16 mph 1004.2mb 61f 52f
6:30 8 16 mph 1004.2mb 61f 52f
6:24 13 17 mph 1004.1mb 61f 52f
6:18 11 15 mph 1004.1mb 61f 52f
6:12 11 16 mph 1004.1mb 61f 52f
6:06 10 17 mph 1004mb 60f 52f
6:00 10 18 mph 1004mb 60f 52f
5:54 15 21 mph 1003.8mb 60f 52f
5:48 11 21 mph 1003.8mb 60f 52f
5:42 13 22 mph 1003.8mb 60f 52f
5:36 14 21 mph 1003.8mb 60f 52f
5:30 10 16 mph 1003.9mb 60f 52f
5:24 14 16 mph 1003.8mb 60f 52f
5:18 13 16 mph 1003.8mb 60f 52f
5:12 13 20 mph 1003.7mb 60f 52f
5:06 13 22 mph 1003.6mb 60f 52f
5:00 10 17 mph 1003.6mb 60f 52f
4:54 9 17 mph 1003.5mb 60f 51f
4:48 9 17 mph 1003.6mb 60f 51f
4:42 10 15 mph 1003.4mb 60f 51f
4:36 13 18 mph 1003.4mb 60f 51f
4:30 9 17 mph 1003.3mb 59f 51f
4:24 15 21 mph 1003.3mb 59f 51f
4:18 9 16 mph 1003.3mb 59f 51f
4:12 11 16 mph 1003.4mb 59f 51f
4:06 11 15 mph 1003.3mb 59f 51f
4:00 7 13 mph 1003.3mb 59f 51f
3:54 9 17 mph 1003.3mb 59f 51f
3:48 9 16 mph 1003.1mb 59f 51f
3:42 13 20 mph 1003.1mb 59f 51f
3:36 14 22 mph 1003.1mb 59f 51f
3:30 13 20 mph 1003mb 59f 51f
3:24 10 20 mph 1003.1mb 59f 51f
3:18 15 20 mph 1003.1mb 59f 51f
3:12 14 18 mph 1003.3mb 59f 51f
3:06 9 16 mph 1003.3mb 59f 51f
3:00 9 20 mph 1003.3mb 59f 51f
2:54 11 21 mph 1003.3mb 59f 51f
2:48 14 20 mph 1003.3mb 59f 51f
2:42 13 18 mph 1003.4mb 59f 51f
2:36 14 21 mph 1003.3mb 59f 51f
2:30 13 18 mph 1003.3mb 59f 51f
2:24 11 22 mph 1003.4mb 59f 51f
2:18 14 21 mph 1003.4mb 59f 51f
2:12 11 20 mph 1003.3mb 59f 51f
2:06 15 22 mph 1003.2mb 59f 51f
2:00 11 16 mph 1003.2mb 59f 51f
1:54 17 23 mph 1003.1mb 60f 51f
1:48 16 23 mph 1003.1mb 60f 51f
1:42 14 20 mph 1003mb 60f 51f
1:36 14 20 mph 1003.2mb 60f 51f
1:30 11 17 mph 1003.2mb 60f 51f
1:24 16 18 mph 1003.1mb 60f 51f
1:18 13 21 mph 1003.1mb 60f 51f
1:12 15 22 mph 1003mb 60f 51f
1:06 14 22 mph 1003mb 60f 51f
1:00 13 20 mph 1002.9mb 60f 51f
12:54 14 22 mph 1002.9mb 60f 51f
12:48 16 23 mph 1003mb 60f 51f
12:42 15 21 mph 1002.9mb 60f 51f
12:36 15 20 mph 1002.9mb 60f 51f
12:30 14 21 mph 1002.9mb 60f 51f
12:24 14 21 mph 1002.9mb 60f 51f
12:18 13 24 mph 1002.9mb 60f 51f
12:12 14 22 mph 1002.9mb 60f 52f
12:06 14 22 mph 1002.8mb 60f 52f
12:00 16 21 mph 1002.8mb 60f 52f
Qui 10/23 11:54 15 23 mph 1002.8mb 60f 52f
11:48 14 22 mph 1002.8mb 60f 52f
11:42 17 23 mph 1002.9mb 60f 52f
11:36 15 20 mph 1002.9mb 60f 52f
11:30 16 22 mph 1002.8mb 60f 52f
11:24 18 22 mph 1002.8mb 60f 52f
11:18 13 21 mph 1002.8mb 60f 52f
11:12 17 22 mph 1002.8mb 60f 52f
11:06 16 24 mph 1002.9mb 60f 52f
11:00 13 22 mph 1003mb 60f 52f
10:54 17 23 mph 1003mb 60f 52f
10:48 14 22 mph 1003mb 60f 52f
10:42 16 21 mph 1003.1mb 60f 52f
10:36 16 22 mph 1003.1mb 60f 52f
10:30 11 18 mph 1003.1mb 60f 52f
10:24 15 24 mph 1003mb 60f 52f
10:18 13 22 mph 1002.9mb 60f 52f
10:12 14 20 mph 1002.8mb 60f 52f
10:06 15 23 mph 1002.8mb 60f 52f
10:00 15 18 mph 1002.8mb 60f 52f
9:54 15 21 mph 1002.8mb 60f 52f
9:48 15 25 mph 1002.8mb 60f 52f
9:42 17 22 mph 1002.8mb 61f 52f
9:36 11 24 mph 1002.8mb 61f 53f
9:30 18 23 mph 1002.7mb 61f 53f
9:24 15 29 mph 1002.7mb 61f 53f
9:18 20 26 mph 1002.6mb 61f 53f
9:12 20 29 mph 1002.6mb 61f 53f
9:06 16 23 mph 1002.6mb 61f 53f
9:00 15 25 mph 1002.6mb 61f 53f
8:54 17 24 mph 1002.5mb 61f 53f
8:48 17 25 mph 1002.5mb 61f 53f
8:42 20 25 mph 1002.5mb 61f 53f
8:36 15 22 mph 1002.6mb 61f 53f
8:30 17 22 mph 1002.5mb 61f 53f
8:24 16 24 mph 1002.6mb 61f 53f
8:18 17 25 mph 1002.5mb 61f 53f
8:12 17 25 mph 1002.4mb 61f 53f
8:06 18 26 mph 1002.3mb 61f 54f
8:00 21 26 mph 1002.4mb 61f 54f
7:54 17 26 mph 1002.3mb 61f 54f
7:48 20 26 mph 1002.3mb 61f 54f
7:42 17 28 mph 1002.2mb 61f 54f
7:36 22 30 mph 1002.1mb 61f 54f
7:30 21 26 mph 1002mb 61f 54f
7:24 20 25 mph 1002mb 61f 54f
7:18 16 24 mph 1002.1mb 61f 54f
7:12 20 26 mph 1001.9mb 61f 54f
7:06 20 28 mph 1001.8mb 61f 54f
7:00 17 30 mph 1001.7mb 61f 54f
6:54 18 28 mph 1001.6mb 61f 54f
6:48 22 29 mph 1001.5mb 61f 54f
6:42 18 28 mph 1001.4mb 61f 54f
6:36 17 28 mph 1001.4mb 61f 55f
6:30 18 26 mph 1001.3mb 61f 55f
6:24 20 26 mph 1001mb 61f 54f
6:18 22 30 mph 1000.9mb 61f 55f
6:12 20 31 mph 1000.8mb 61f 55f
6:06 17 25 mph 1000.7mb 61f 55f
6:00 15 26 mph 1000.6mb 61f 55f
5:54 20 26 mph 1000.5mb 61f 55f
5:48 18 34 mph 1000.6mb 61f 55f
5:42 16 23 mph 1000.7mb 61f 55f
5:36 20 28 mph 1000.7mb 61f 55f
5:30 15 24 mph 1000.7mb 61f 55f
5:24 17 25 mph 1000.6mb 61f 55f
5:18 16 22 mph 1000.6mb 61f 55f
5:12 15 23 mph 1000.6mb 60f 55f
5:06 20 25 mph 1000.6mb 60f 55f
5:00 20 31 mph 1000.5mb 60f 55f
4:54 18 25 mph 1000.5mb 60f 55f
4:48 17 23 mph 1000.4mb 60f 55f
4:42 17 28 mph 1000.3mb 60f 55f
4:36 20 26 mph 1000.1mb 59f 55f
4:30 21 29 mph 1000mb 59f 55f
4:24 18 30 mph 1000mb 59f 55f
4:18 22 26 mph 1000mb 59f 55f
4:12 18 28 mph 1000mb 59f 55f
4:06 17 28 mph 1000mb 59f 56f
4:00 16 26 mph 999.9mb 60f 56f
3:54 16 26 mph 999.9mb 59f 56f
3:48 20 29 mph 1000mb 59f 56f
3:42 17 28 mph 1000mb 59f 56f
3:36 18 28 mph 999.9mb 60f 56f
3:30 20 28 mph 999.9mb 60f 56f
3:24 20 29 mph 999.9mb 60f 56f
3:18 18 24 mph 1000mb 59f 56f
3:12 15 22 mph 1000mb 59f 56f
3:06 20 25 mph 1000.1mb 59f 56f
3:00 17 25 mph 1000mb 59f 56f
2:54 14 29 mph 1000mb 59f 57f
2:48 17 25 mph 1000mb 59f 57f
2:42 17 25 mph 1000mb 59f 57f
2:36 17 29 mph 1000mb 59f 56f
2:30 15 28 mph 1000mb 59f 56f
2:24 13 24 mph 1000.1mb 59f 56f
2:18 18 25 mph 1000.2mb 59f 56f
2:12 14 23 mph 1000.1mb 59f 56f
2:06 21 31 mph 1000.1mb 59f 56f
2:00 15 26 mph 1000.1mb 59f 56f
1:54 16 28 mph 1000.1mb 59f 56f
1:48 20 29 mph 1000.2mb 59f 56f
1:42 15 26 mph 1000.2mb 59f 56f
1:36 17 24 mph 1000.3mb 59f 56f
1:30 16 29 mph 1000.3mb 59f 56f
1:24 16 23 mph 1000.4mb 59f 56f
1:18 13 22 mph 1000.3mb 59f 56f
1:12 14 21 mph 1000.4mb 59f 56f
1:06 14 23 mph 1000.5mb 59f 55f
1:00 16 22 mph 1000.5mb 59f 55f
12:54 17 25 mph 1000.5mb 59f 55f
12:48 16 23 mph 1000.7mb 59f 55f
12:42 13 17 mph 1000.8mb 59f 55f
12:36 11 22 mph 1000.8mb 59f 55f
12:30 11 22 mph 1000.9mb 60f 55f
12:24 15 24 mph 1001mb 60f 55f
12:18 16 25 mph 1001.1mb 60f 55f
12:12 16 23 mph 1001.2mb 60f 55f
12:06 16 26 mph 1001.3mb 60f 55f
12:00 17 24 mph 1001.4mb 60f 55f
11:54 15 23 mph 1001.4mb 60f 55f
11:48 20 26 mph 1001.4mb 60f 55f
11:42 21 29 mph 1001.4mb 60f 55f
11:36 21 29 mph 1001.4mb 60f 55f
11:30 21 30 mph 1001.4mb 60f 55f
11:24 24 29 mph 1001.5mb 60f 55f
11:18 20 30 mph 1001.4mb 60f 55f
11:12 17 32 mph 1001.4mb 60f 55f
11:06 15 29 mph 1001.5mb 61f 55f
11:00 21 29 mph 1001.5mb 61f 55f
10:54 18 26 mph 1001.4mb 61f 55f
10:48 16 31 mph 1001.4mb 61f 55f
10:42 25 31 mph 1001.3mb 61f 55f
10:36 20 29 mph 1001.3mb 61f 55f
10:30 22 29 mph 1001.3mb 61f 55f
10:24 20 29 mph 1001.5mb 61f 55f
10:18 21 29 mph 1001.5mb 61f 55f
10:12 16 26 mph 1001.5mb 61f 55f
10:06 23 32 mph 1001.6mb 61f 55f
10:00 17 33 mph 1001.6mb 61f 55f
9:54 17 26 mph 1001.5mb 61f 55f
9:48 20 29 mph 1001.6mb 61f 54f
9:42 17 30 mph 1001.7mb 61f 54f
9:36 16 29 mph 1001.7mb 61f 54f
9:30 21 30 mph 1001.7mb 61f 54f
9:24 21 30 mph 1001.7mb 61f 54f
9:18 20 28 mph 1001.6mb 61f 54f
9:12 17 31 mph 1001.5mb 61f 54f
9:06 18 25 mph 1001.4mb 61f 54f
9:00 17 25 mph 1001.3mb 61f 54f
8:54 17 32 mph 1001.1mb 61f 54f
8:48 24 34 mph 1001.1mb 61f 54f
8:42 21 31 mph 1001.1mb 61f 54f
8:36 23 34 mph 1001mb 61f 53f
8:30 21 33 mph 1001.1mb 61f 53f
8:24 18 32 mph 1001.2mb 61f 53f
8:18 24 33 mph 1001.1mb 61f 53f
8:12 20 34 mph 1001.2mb 61f 53f
8:06 18 30 mph 1001.4mb 61f 53f
8:00 24 31 mph 1001.2mb 62f 53f
7:54 22 32 mph 1001.1mb 62f 53f
7:48 20 32 mph 1001mb 62f 53f
7:42 24 38 mph 1000mb 62f 53f
7:36 24 36 mph 1000.6mb 62f 53f
7:30 23 38 mph 1001.1mb 62f 53f
7:24 28 39 mph 1000.2mb 62f 53f
7:18 28 38 mph 999.9mb 62f 53f
7:12 30 43 mph 1000mb 62f 53f
7:06 32 47 mph 999.9mb 62f 53f
7:00 23 45 mph 1000.3mb 62f 53f
6:54 33 51 mph 1000.1mb 62f 53f
6:48 25 36 mph 1000.5mb 62f 53f
6:42 22 36 mph 1001.1mb 62f 53f
6:36 22 32 mph 1001.6mb 62f 53f
6:30 21 28 mph 1001.7mb 62f 53f
6:24 25 33 mph 1001.5mb 62f 53f
6:18 25 38 mph 1001mb 62f 53f
6:12 26 38 mph 1000.6mb 62f 53f
6:06 25 40 mph 1000.1mb 62f 53f
6:00 25 36 mph 1000.5mb 62f 52f
5:54 21 31 mph 1001.2mb 62f 52f
5:48 17 28 mph 1002mb 62f 52f
5:42 16 28 mph 1002.3mb 62f 52f
5:36 17 29 mph 1002.5mb 62f 52f
5:30 16 33 mph 1002.5mb 62f 52f
5:24 21 28 mph 1002.6mb 62f 52f
5:18 17 26 mph 1003.1mb 62f 52f
5:12 20 26 mph 1003mb 62f 52f
5:06 20 30 mph 1003mb 62f 52f
5:00 18 28 mph 1002.9mb 62f 52f
4:54 20 25 mph 1002.8mb 62f 52f
4:48 18 29 mph 1002.7mb 61f 52f
4:42 20 28 mph 1002.7mb 61f 51f
4:36 18 28 mph 1002.8mb 61f 51f
4:30 17 28 mph 1002.7mb 61f 51f
4:24 20 33 mph 1002.2mb 61f 51f
4:18 20 31 mph 1002.1mb 61f 52f
4:12 15 26 mph 1002.7mb 61f 52f
4:06 17 26 mph 1003mb 60f 52f
4:00 15 33 mph 1002.7mb 60f 51f
3:54 22 33 mph 1002mb 60f 51f
3:48 20 29 mph 1002mb 60f 52f
3:42 21 30 mph 1003mb 60f 52f
3:36 18 29 mph 1003.5mb 60f 52f
3:30 16 28 mph 1003.7mb 60f 52f
3:24 14 29 mph 1003.3mb 60f 52f
3:18 20 32 mph 1003.1mb 60f 52f
3:12 21 32 mph 1002.8mb 60f 52f
3:06 18 33 mph 1002.9mb 60f 52f
3:00 21 28 mph 1003.1mb 60f 52f
2:54 21 32 mph 1003.7mb 60f 52f
2:48 20 30 mph 1003.6mb 60f 52f
2:42 21 31 mph 1003.9mb 60f 53f
2:36 18 28 mph 1004.4mb 60f 52f
2:30 21 29 mph 1004.4mb 60f 53f
2:24 17 26 mph 1004.7mb 60f 53f
2:18 22 36 mph 1004.5mb 60f 53f
2:12 23 32 mph 1003.9mb 60f 52f
2:06 18 36 mph 1003.7mb 60f 53f
2:00 22 29 mph 1004.1mb 60f 53f
1:54 22 30 mph 1004.7mb 60f 53f
1:48 18 31 mph 1005mb 60f 53f
1:42 24 32 mph 1005.2mb 60f 53f
1:36 22 31 mph 1005.4mb 60f 53f
1:30 24 38 mph 1005.6mb 60f 53f
1:24 18 24 mph 1005.8mb 60f 53f
1:18 21 28 mph 1006mb 60f 53f
1:12 20 33 mph 1006mb 60f 53f
1:06 20 31 mph 1006mb 60f 53f
1:00 26 33 mph 1005.7mb 60f 53f
12:54 21 30 mph 1006.1mb 60f 53f
12:48 21 33 mph 1005.9mb 60f 53f
12:42 18 29 mph 1005.9mb 60f 53f
12:36 21 29 mph 1005.9mb 60f 53f
12:30 21 31 mph 1006.1mb 61f 53f
12:24 21 30 mph 1006.2mb 61f 53f
12:18 18 28 mph 1006.4mb 61f 53f
12:12 22 29 mph 1006.6mb 61f 53f
12:06 16 26 mph 1006.3mb 61f 53f
12:00 17 30 mph 1006.3mb 61f 53f
Qua 10/22 11:54 25 30 mph 1005.9mb 61f 53f
11:48 24 32 mph 1005.8mb 61f 53f
11:42 18 30 mph 1005.9mb 61f 53f
11:36 26 36 mph 1006.2mb 61f 53f
11:30 22 31 mph 1006.1mb 62f 53f
11:24 23 32 mph 1006.1mb 62f 53f
11:18 25 31 mph 1006.3mb 62f 53f
11:12 22 30 mph 1006.5mb 62f 53f
11:06 22 31 mph 1006.6mb 62f 53f
11:00 21 29 mph 1006.6mb 62f 54f
10:54 21 29 mph 1006.5mb 62f 54f
10:48 20 36 mph 1006.4mb 62f 54f
10:42 22 32 mph 1006.5mb 62f 53f
10:36 18 29 mph 1006.6mb 62f 54f
10:30 24 34 mph 1006.4mb 62f 54f
10:24 13 33 mph 1006.3mb 62f 54f
10:18 23 32 mph 1006.3mb 62f 54f
10:12 28 39 mph 1006mb 62f 54f
10:06 30 38 mph 1005.9mb 62f 55f
10:00 31 41 mph 1005.6mb 62f 55f
9:54 29 39 mph 1005.7mb 62f 54f
9:48 20 32 mph 1006.2mb 62f 54f
9:42 26 34 mph 1006.3mb 62f 55f
9:36 23 29 mph 1007.3mb 62f 55f
9:30 20 29 mph 1007.2mb 62f 54f
9:24 18 25 mph 1006.8mb 62f 54f
9:18 23 31 mph 1006.3mb 62f 54f
9:12 22 32 mph 1006.6mb 62f 54f
9:06 29 39 mph 1005.7mb 62f 54f
9:00 28 44 mph 1005.3mb 62f 55f
8:54 32 46 mph 1005mb 62f 55f
8:48 24 39 mph 1005.1mb 62f 55f
8:42 28 36 mph 1005.6mb 62f 55f
8:36 24 41 mph 1005.3mb 62f 55f
8:30 28 36 mph 1005.7mb 62f 55f
8:24 26 36 mph 1005.7mb 62f 55f
8:18 20 34 mph 1006mb 62f 55f
8:12 23 33 mph 1006.1mb 62f 55f
8:06 28 39 mph 1006mb 62f 55f
8:00 23 31 mph 1006.1mb 62f 55f
7:54 20 29 mph 1006.4mb 62f 55f
7:48 15 26 mph 1006.7mb 62f 54f
7:42 20 29 mph 1006.6mb 62f 54f
7:36 24 30 mph 1006.3mb 62f 54f
7:30 22 32 mph 1006.6mb 62f 54f
7:24 20 31 mph 1007.2mb 62f 54f
7:18 21 37 mph 1007.6mb 62f 54f
7:12 22 36 mph 1007.5mb 62f 54f
7:06 21 32 mph 1007.6mb 62f 53f
7:00 22 33 mph 1007.4mb 62f 53f
6:54 26 33 mph 1007.4mb 62f 53f
6:48 24 38 mph 1007.5mb 62f 53f
6:42 22 31 mph 1007.5mb 62f 53f
6:36 21 33 mph 1007.7mb 62f 53f
6:30 24 33 mph 1008mb 62f 53f
6:24 18 32 mph 1008.5mb 62f 53f
6:18 23 37 mph 1008.5mb 62f 53f
6:12 24 31 mph 1008.4mb 62f 53f
6:06 24 32 mph 1008.5mb 62f 53f
6:00 21 31 mph 1008.6mb 62f 53f
5:54 25 36 mph 1008.7mb 61f 52f
5:48 24 33 mph 1008.8mb 61f 53f
5:42 23 31 mph 1009mb 61f 52f
5:36 21 30 mph 1009.1mb 61f 53f
5:30 24 32 mph 1009mb 61f 53f
5:24 21 36 mph 1009.1mb 61f 52f
5:18 24 34 mph 1009.1mb 61f 53f
5:12 20 36 mph 1009.3mb 61f 53f
5:06 23 32 mph 1009.4mb 61f 53f
5:00 18 29 mph 1009.5mb 61f 53f
4:54 20 29 mph 1009.6mb 61f 53f
4:48 22 32 mph 1009.9mb 61f 53f
4:42 18 31 mph 1009.8mb 61f 53f
4:36 16 38 mph 1009.9mb 61f 53f
4:30 23 37 mph 1009.9mb 61f 53f
4:24 21 26 mph 1010.1mb 61f 53f
4:18 21 31 mph 1010.3mb 61f 53f
4:12 22 29 mph 1010.4mb 61f 53f
4:06 17 25 mph 1010.5mb 61f 53f
4:00 20 28 mph 1010.6mb 61f 53f
3:54 18 28 mph 1010.7mb 61f 53f
3:48 18 26 mph 1010.8mb 61f 53f
3:42 18 30 mph 1010.7mb 61f 53f
3:36 21 26 mph 1010.7mb 61f 53f
3:30 17 30 mph 1010.7mb 61f 54f
3:24 18 29 mph 1010.8mb 61f 54f
3:18 20 29 mph 1011mb 61f 54f
3:12 21 31 mph 1010.9mb 61f 54f
3:06 22 31 mph 1010.9mb 61f 54f
3:00 16 34 mph 1011mb 61f 54f
2:54 23 29 mph 1011mb 61f 54f
2:48 18 26 mph 1011mb 60f 54f
2:42 16 25 mph 1011.1mb 60f 54f
2:36 18 28 mph 1011.2mb 60f 54f
2:30 20 29 mph 1011.3mb 60f 54f
2:24 18 28 mph 1011.3mb 60f 54f
2:18 16 24 mph 1011.4mb 60f 54f
2:12 16 24 mph 1011.4mb 60f 54f
2:06 16 24 mph 1011.6mb 60f 55f
2:00 17 26 mph 1011.6mb 60f 55f
1:54 17 28 mph 1011.6mb 60f 55f
1:48 16 23 mph 1011.7mb 60f 55f
1:42 16 29 mph 1011.9mb 60f 55f
1:36 18 25 mph 1011.9mb 60f 55f
1:30 17 26 mph 1012mb 60f 55f
1:24 17 28 mph 1012mb 60f 55f
1:18 18 25 mph 1012mb 60f 55f
1:12 16 31 mph 1011.9mb 60f 55f
1:06 18 26 mph 1011.7mb 60f 55f
1:00 20 26 mph 1011.9mb 60f 55f
12:54 17 23 mph 1012mb 60f 55f
12:48 18 28 mph 1012.2mb 60f 56f
12:42 21 29 mph 1012.3mb 60f 55f
12:36 17 28 mph 1012.3mb 60f 55f
12:30 18 29 mph 1012.5mb 60f 55f
12:24 21 32 mph 1012.5mb 60f 55f
12:18 21 29 mph 1012.6mb 60f 55f
12:12 17 29 mph 1012.8mb 60f 55f
12:06 18 29 mph 1012.8mb 60f 55f
12:00 20 26 mph 1012.9mb 60f 55f
11:54 16 23 mph 1013.1mb 60f 55f
11:48 22 29 mph 1013.1mb 60f 55f
11:42 20 28 mph 1013.2mb 60f 55f
11:36 17 30 mph 1013.3mb 61f 55f
11:30 21 31 mph 1013.2mb 61f 55f
11:24 18 29 mph 1013.2mb 61f 56f
11:18 18 26 mph 1013.4mb 61f 56f
11:12 21 29 mph 1013.5mb 61f 56f
11:06 22 29 mph 1013.3mb 62f 56f
11:00 17 26 mph 1013.4mb 62f 56f
10:54 18 25 mph 1013.4mb 62f 56f
10:48 22 32 mph 1013.3mb 62f 56f
10:42 20 28 mph 1013.3mb 62f 56f
10:36 18 29 mph 1013.3mb 62f 56f
10:30 17 24 mph 1013.2mb 62f 56f
10:24 16 25 mph 1013.2mb 62f 56f
10:18 17 28 mph 1013.2mb 62f 57f
10:12 16 24 mph 1013.2mb 62f 57f
10:06 21 25 mph 1013.3mb 62f 57f
10:00 18 30 mph 1013.3mb 62f 57f
9:54 20 28 mph 1013.4mb 62f 57f
9:48 17 25 mph 1013.6mb 62f 57f
9:42 21 25 mph 1013.6mb 62f 57f
9:36 15 29 mph 1013.7mb 62f 57f
9:30 16 24 mph 1013.7mb 62f 57f
9:24 10 14 mph 1013.9mb 62f 56f
9:18 11 15 mph 1013.8mb 62f 56f
9:12 9 15 mph 1013.9mb 62f 56f
9:06 9 13 mph 1014mb 62f 56f
9:00 7 11 mph 1014.1mb 62f 55f
8:54 9 13 mph 1014.1mb 62f 55f
8:48 10 14 mph 1014mb 62f 55f
8:42 9 16 mph 1013.9mb 62f 55f
8:36 10 14 mph 1013.7mb 62f 54f
8:30 9 14 mph 1013.8mb 62f 54f
8:24 10 15 mph 1013.9mb 62f 54f
8:18 11 16 mph 1013.6mb 62f 54f
8:12 11 17 mph 1013.5mb 62f 54f
8:06 11 17 mph 1013.5mb 62f 54f
8:00 13 17 mph 1013.4mb 62f 54f
7:54 11 17 mph 1013.5mb 62f 54f
7:48 10 14 mph 1013.4mb 62f 53f
7:42 8 15 mph 1013.3mb 62f 53f
7:36 10 16 mph 1013.3mb 62f 53f
7:30 11 16 mph 1013.1mb 62f 53f
7:24 10 18 mph 1013.1mb 62f 53f
7:18 10 15 mph 1013.2mb 62f 53f
7:12 9 15 mph 1013.3mb 62f 53f
7:06 11 17 mph 1013.4mb 62f 53f
7:00 11 17 mph 1013.2mb 62f 53f
6:54 9 20 mph 1013.3mb 62f 53f
6:48 9 17 mph 1013.4mb 62f 53f
6:42 11 16 mph 1013.6mb 62f 53f
6:36 14 17 mph 1013.6mb 62f 52f
6:30 13 17 mph 1013.7mb 62f 53f
6:24 13 16 mph 1013.6mb 62f 53f
6:18 10 16 mph 1013.6mb 62f 52f
6:12 14 17 mph 1013.7mb 62f 52f
6:06 10 15 mph 1013.9mb 62f 53f
6:00 8 14 mph 1013.9mb 62f 52f
5:54 10 16 mph 1013.9mb 62f 52f
5:48 11 17 mph 1013.9mb 62f 52f
5:42 10 15 mph 1014mb 62f 53f
5:36 11 17 mph 1014mb 62f 52f
5:30 10 15 mph 1014mb 62f 53f
5:24 10 16 mph 1013.8mb 62f 52f
5:18 11 17 mph 1013.7mb 62f 52f
5:12 11 18 mph 1013.7mb 62f 53f
5:06 13 18 mph 1013.6mb 62f 53f
5:00 15 20 mph 1013.5mb 62f 53f
4:54 13 21 mph 1013.5mb 62f 53f
4:48 10 18 mph 1013.4mb 62f 53f
4:42 11 20 mph 1013.5mb 62f 53f
4:36 10 16 mph 1013.4mb 62f 53f
4:30 9 13 mph 1013.2mb 62f 53f
4:24 11 16 mph 1013.1mb 62f 53f
4:18 11 17 mph 1013mb 62f 53f
4:12 10 17 mph 1013.2mb 62f 53f
4:06 11 20 mph 1013.3mb 62f 53f
4:00 13 17 mph 1013.2mb 62f 53f
3:54 15 23 mph 1013.1mb 62f 53f
3:48 16 21 mph 1013mb 62f 53f
3:42 15 18 mph 1013mb 62f 53f
3:36 14 18 mph 1013.1mb 62f 54f
3:30 13 17 mph 1013.1mb 62f 54f
3:24 11 17 mph 1013.1mb 62f 54f
3:18 13 18 mph 1013.1mb 62f 54f
3:12 11 18 mph 1013.2mb 62f 54f
3:06 14 17 mph 1013.3mb 62f 54f
3:00 13 17 mph 1013.2mb 62f 54f
2:54 13 17 mph 1013.1mb 62f 54f
2:48 14 17 mph 1013mb 62f 54f
2:42 11 16 mph 1013mb 62f 54f
2:36 13 18 mph 1013mb 62f 55f
2:30 9 15 mph 1013mb 62f 55f
2:24 11 15 mph 1013.1mb 61f 55f
2:18 8 16 mph 1013.2mb 61f 55f
2:12 11 16 mph 1013.3mb 61f 55f
2:06 11 17 mph 1013.3mb 61f 55f
2:00 11 18 mph 1013.3mb 61f 55f
1:54 10 16 mph 1013.3mb 61f 55f
1:48 11 16 mph 1013.3mb 61f 55f
1:42 13 18 mph 1013.4mb 61f 55f
1:36 10 15 mph 1013.4mb 61f 55f
1:30 10 17 mph 1013.5mb 61f 56f
1:24 11 17 mph 1013.5mb 61f 56f
1:18 14 18 mph 1013.5mb 61f 56f
1:12 13 18 mph 1013.4mb 61f 56f
1:06 13 18 mph 1013.4mb 61f 56f
1:00 14 18 mph 1013.5mb 61f 56f
12:54 9 15 mph 1013.5mb 61f 57f
12:48 8 15 mph 1013.5mb 61f 57f
12:42 10 16 mph 1013.5mb 61f 57f
12:36 10 13 mph 1013.5mb 61f 57f
12:30 9 11 mph 1013.5mb 61f 57f
12:24 10 13 mph 1013.5mb 61f 56f
12:18 9 14 mph 1013.5mb 61f 56f
12:12 10 14 mph 1013.5mb 61f 56f
12:06 8 10 mph 1013.6mb 61f 56f
12:00 8 10 mph 1013.6mb 61f 56f
Ter 10/21 11:54 8 11 mph 1013.7mb 61f 56f
11:48 8 10 mph 1013.8mb 61f 56f
11:42 7 10 mph 1013.8mb 61f 56f
11:36 7 9 mph 1013.7mb 61f 56f
11:30 7 9 mph 1013.7mb 61f 56f
11:24 6 8 mph 1013.8mb 61f 56f
11:18 6 9 mph 1013.7mb 61f 56f
11:12 7 10 mph 1013.6mb 61f 57f
11:06 9 11 mph 1013.6mb 61f 57f
11:00 9 10 mph 1013.5mb 61f 57f
10:54 8 10 mph 1013.5mb 61f 57f
10:48 8 10 mph 1013.5mb 61f 57f
10:42 8 10 mph 1013.5mb 61f 57f
10:36 7 10 mph 1013.5mb 61f 57f
10:30 9 11 mph 1013.5mb 61f 57f
10:24 9 11 mph 1013.5mb 61f 58f
10:18 8 11 mph 1013.6mb 61f 58f
10:12 7 10 mph 1013.6mb 61f 58f
10:06 6 10 mph 1013.5mb 61f 58f
10:00 7 9 mph 1013.5mb 61f 58f
9:54 7 10 mph 1013.5mb 61f 58f
9:48 9 11 mph 1013.4mb 61f 58f
9:42 10 13 mph 1013.4mb 61f 58f
9:36 9 13 mph 1013.3mb 61f 58f
9:30 8 13 mph 1013.1mb 61f 58f
9:24 10 14 mph 1013mb 61f 58f
9:18 10 14 mph 1012.9mb 61f 58f
9:12 8 11 mph 1012.8mb 61f 58f
9:06 7 10 mph 1012.8mb 61f 58f
9:00 8 10 mph 1012.8mb 61f 58f
8:54 9 11 mph 1012.8mb 62f 58f
8:48 10 14 mph 1012.7mb 62f 58f
8:42 8 11 mph 1012.6mb 62f 58f
8:36 9 13 mph 1012.5mb 62f 58f
8:30 9 10 mph 1012.4mb 62f 58f
8:24 8 11 mph 1012.4mb 62f 58f
8:18 7 11 mph 1012.4mb 62f 58f
8:12 7 11 mph 1012.3mb 62f 58f
8:06 10 13 mph 1012.1mb 62f 58f
8:00 9 13 mph 1012mb 62f 58f
7:54 11 14 mph 1011.9mb 62f 58f
7:48 10 11 mph 1011.9mb 62f 58f
7:42 9 14 mph 1011.9mb 62f 58f
7:36 10 13 mph 1011.9mb 62f 58f
7:30 10 11 mph 1011.8mb 62f 58f
7:24 9 11 mph 1011.8mb 62f 58f
7:18 9 10 mph 1011.8mb 62f 58f
7:12 8 9 mph 1011.9mb 62f 59f
7:06 8 10 mph 1011.8mb 62f 59f
7:00 8 10 mph 1011.8mb 62f 59f
6:54 9 10 mph 1011.7mb 62f 59f
6:48 8 10 mph 1011.7mb 62f 59f
6:42 9 10 mph 1011.7mb 62f 59f
6:36 8 10 mph 1011.6mb 62f 59f
6:30 8 11 mph 1011.6mb 62f 60f
6:24 9 10 mph 1011.5mb 62f 60f
6:18 7 9 mph 1011.5mb 62f 60f
6:12 8 9 mph 1011.5mb 62f 60f
6:06 7 8 mph 1011.4mb 62f 60f
6:00 7
mph
1011.5mb 62f 61f
5:54 5 7 mph 1011.4mb 62f 61f
5:48 6 7 mph 1011.4mb 62f 61f
5:42 6 8 mph 1011.4mb 62f 61f
5:36 6 7 mph 1011.4mb 62f 61f
5:30 5 7 mph 1011.4mb 62f 61f
5:24 6 7 mph 1011.3mb 62f 61f
5:18 5 7 mph 1011.3mb 62f 61f
5:12 7 8 mph 1011.3mb 62f 62f
5:06 8 10 mph 1011.1mb 62f 62f
5:00 7 8 mph 1011.1mb 62f 62f
4:54 5 6 mph 1011.1mb 62f 62f
4:48 2 5 mph 1011mb 61f 62f
4:42 3 6 mph 1011mb 61f 62f
4:36 5 8 mph 1011.1mb 61f 62f
4:30 6 7 mph 1011.1mb 61f 62f
4:24 6 8 mph 1011.1mb 61f 62f
4:18 8 10 mph 1011.1mb 61f 62f
4:12 3 6 mph 1011.2mb 61f 62f
4:06 3 7 mph 1011.3mb 61f 63f
4:00 7 8 mph 1011.2mb 61f 62f
3:54 5 7 mph 1011.1mb 61f 63f
3:48 7 8 mph 1011.1mb 61f 62f
3:42 7 8 mph 1011mb 61f 63f
3:36 7 8 mph 1011mb 60f 63f
3:30 5 8 mph 1011mb 60f -
3:24 8 10 mph 1011mb 60f -
3:18 6 10 mph 1011mb 60f 63f
3:12 8 10 mph 1011mb 60f 62f
3:06 7 9 mph 1011mb 60f 62f
3:00 9 11 mph 1011mb 60f 62f
2:54 7 11 mph 1011.1mb 60f 62f
2:48 9 11 mph 1011.1mb 60f 62f
2:42 10 13 mph 1011.1mb 60f 62f
2:36 11 13 mph 1011.2mb 60f 62f
2:30 13 15 mph 1011.2mb 60f 62f
2:24 11 15 mph 1011.4mb 60f 61f
2:18 9 13 mph 1011.4mb 60f 61f
2:12 8 11 mph 1011.4mb 60f 61f
2:06 5 10 mph 1011.5mb 60f 61f
2:00 6 11 mph 1011.5mb 60f 60f
1:54 2 9 mph 1011.5mb 60f 60f
1:48 8 10 mph 1011.5mb 60f 60f
1:42 10 14 mph 1011.6mb 60f 61f
1:36 5 8 mph 1011.6mb 60f 61f
1:30 6 8 mph - 59f -
1:24 6 8 mph - 59f -
1:18 3 7 mph 1011.8mb 59f 61f
1:12 5 7 mph 1011.8mb 59f 61f
1:06 7 8 mph 1011.9mb 59f 61f
1:00 7
mph
1012mb 59f 61f
12:54 5 6 mph 1012mb 59f 61f
12:48 2 5 mph 1012mb 59f 61f
12:42 2 3 mph 1012mb 59f 62f
12:36 1 2 mph 1012.1mb 59f 62f
12:30 2 3 mph 1012.2mb 59f 61f
12:24 2 3 mph 1012.3mb 59f 61f
12:18 2 3 mph 1012.4mb 59f 60f
12:12 2 3 mph 1012.5mb 59f 60f
12:06 2 3 mph 1012.6mb 59f 60f
12:00 2 5 mph 1012.7mb 59f 60f
11:54 3 5 mph 1012.8mb 59f 60f
11:48 3 7 mph 1012.9mb 59f 59f
11:42 3 9 mph 1012.8mb 59f 60f
11:36 9
mph
1012.8mb 59f 60f
11:30 6 7 mph 1012.8mb 59f 60f
11:24 7
mph
1012.8mb 59f 60f
11:18 2 5 mph 1012.8mb 59f 60f
11:12  -  2 mph 1012.9mb 59f 60f
11:06  -  2 mph 1013mb 59f 60f
11:00  -  1 mph 1013mb 59f 60f
10:54 1
mph
1013mb 60f 60f
10:48  -  1 mph 1013mb 60f 60f
10:42  -  2 mph 1013mb 60f 60f
10:36  -  1 mph 1013mb 60f 59f
10:30  -  1 mph 1013.1mb 60f 59f
10:24 1 2 mph 1013.2mb 61f 59f
10:18 2 6 mph 1013.2mb 61f 59f
10:12 3 6 mph 1013.2mb 61f 58f
10:06 3 6 mph 1013.2mb 61f 58f
10:00 3
mph
1013.2mb 61f 57f
9:54 2 5 mph 1013.3mb 61f 57f
9:48 3 7 mph 1013.3mb 61f 56f
9:42 6 8 mph 1013mb 61f 56f
9:36 6 8 mph 1013.2mb 61f 55f
9:30 5 6 mph 1013.5mb 61f 55f
9:24 5 6 mph 1013.6mb 61f 54f
9:18 3 5 mph 1013.8mb 61f 54f
9:12 3 5 mph 1013.9mb 61f 54f
9:06 3 6 mph 1013.9mb 61f 54f
9:00 3 5 mph 1013.6mb 61f 53f
8:54 3 5 mph 1013.8mb 61f 53f
8:48 2 5 mph 1013.8mb 61f 53f
8:42 2 5 mph 1013.9mb 61f 53f
8:36 3 5 mph 1013.9mb 61f 53f
8:30 3 6 mph 1013.9mb 61f 52f
8:24 5 6 mph 1013.8mb 61f 52f
8:18 2 5 mph 1013.8mb 61f 52f
8:12 3 5 mph 1013.7mb 61f 52f
8:06 2 5 mph 1013.5mb 61f 52f
8:00 3 6 mph 1013.4mb 61f 52f
7:54 3 5 mph 1013.4mb 61f 51f
7:48 3 6 mph 1013.7mb 61f 51f
7:42 3 5 mph 1013.7mb 61f 51f
7:36 3 5 mph 1013.5mb 61f 51f
7:30 3 6 mph 1013.4mb 61f 51f
7:24 2 3 mph 1013.4mb 61f 51f
7:18  -  3 mph 1013.5mb 61f 51f
7:12 3 5 mph 1013.5mb 61f 51f
7:06 2 3 mph 1013.2mb 61f 51f
7:00 2 5 mph 1013.1mb 61f 51f
6:54 3 6 mph 1013mb 61f 50f
6:48 3 5 mph 1012.9mb 61f 50f
6:42 3 5 mph 1012.9mb 61f 50f
6:36 5 6 mph 1013mb 61f 50f
6:30 6
mph
1013.1mb 61f 50f
6:24 2 5 mph 1013.3mb 61f 50f
6:18 5 6 mph 1013.2mb 61f 50f
6:12 5 6 mph 1013.2mb 61f 50f
6:06 5 6 mph 1013.2mb 61f 50f
6:00 5 6 mph 1013.3mb 62f 50f
5:54 5 6 mph 1013.3mb 62f 50f
5:48 3 5 mph 1013.4mb 62f 50f
5:42 2 3 mph 1013.5mb 62f 50f
5:36 2
mph
1013.5mb 62f 50f
5:30 1 3 mph 1013.5mb 62f 50f
5:24 2 3 mph 1013.6mb 62f 49f
5:18 3 5 mph 1013.5mb 62f 49f
5:12 3 5 mph 1013.5mb 62f 49f
5:06 2 3 mph 1013.7mb 62f 50f
5:00 2 3 mph 1013.7mb 62f 49f
4:54 1 2 mph 1013.8mb 62f 49f
4:48 1 3 mph 1013.9mb 62f 49f
4:42  -  1 mph 1014mb 62f 50f
4:36  -  2 mph 1014mb 62f 50f
4:30  -  3 mph 1014mb 62f 50f
4:24 3 5 mph 1014mb 62f 50f
4:18 3 6 mph 1014mb 62f 49f
4:12 3 5 mph 1014mb 62f 50f
4:06 3 6 mph 1014mb 62f 50f
4:00 3 6 mph 1013.9mb 62f 50f
3:54 5 6 mph 1014mb 62f 49f
3:48 5 6 mph 1014mb 62f 49f
3:42 2 3 mph 1014.1mb 61f 50f
3:36 1 2 mph 1014.1mb 61f 49f
3:30  -  5 mph 1014.1mb 61f 49f
3:24 2 3 mph 1014.2mb 61f 49f
3:18 1 3 mph 1014.3mb 61f 49f
3:12 7 9 mph 1014.4mb 61f 49f
3:06 2 5 mph 1014.4mb 61f 50f
3:00 3 5 mph 1014.3mb 61f 50f
2:54 2 5 mph 1014.3mb 61f 50f
2:48 2 5 mph 1014.4mb 61f 50f
2:42 2 3 mph 1014.5mb 61f 50f
2:36 1 3 mph 1014.5mb 61f 49f
2:30 2 3 mph 1014.6mb 61f 49f
2:24 2 5 mph 1014.6mb 61f 49f
2:18 2 3 mph 1014.7mb 60f 49f
2:12 3 5 mph 1014.8mb 60f 49f
2:06 2 3 mph 1014.9mb 60f 49f
2:00 2 3 mph 1014.9mb 60f 49f
1:54 2 6 mph 1014.9mb 60f 49f
1:48 5 6 mph 1014.8mb 60f 49f
1:42 5 6 mph 1014.8mb 60f 49f
1:36 3 5 mph 1014.9mb 60f 50f
1:30 3 5 mph 1015mb 60f 50f
1:24 3 5 mph 1015mb 60f 50f
1:18 3
mph
1015mb 60f 50f
1:12 2 3 mph 1015mb 60f 49f
1:06  -  1 mph 1015mb 60f 49f
1:00 1
mph
1015mb 60f 49f
12:54 1
mph
1015mb 60f 49f
12:48  -  1 mph 1015.1mb 60f 49f
12:42 1
mph
1015.2mb 60f 49f
12:36  -  mph 1015.1mb 60f 49f
12:30  -  1 mph 1015mb 60f 49f
12:24  -  1 mph 1015.1mb 60f 49f
12:18  -  1 mph 1015.1mb 60f 49f
12:12  -  1 mph 1015.1mb 60f 49f
12:06  -  2 mph 1015.1mb 60f 49f
12:00 2
mph
1015.2mb 60f 49f
Seg 10/20 11:54  -  2 mph 1015.2mb 60f 49f
11:48 1 3 mph 1015.1mb 60f 49f
11:42 3
mph
1015.2mb 60f 49f
11:36 2 3 mph 1015.1mb 60f 49f
11:30 2 3 mph 1015.2mb 60f 49f
11:24 3
mph
1015.2mb 60f 49f
11:18 3 5 mph 1015.3mb 60f 49f
11:12 3 5 mph 1015.3mb 60f 49f
11:06 3 5 mph 1015.3mb 60f 49f
11:00 5
mph
1015.4mb 60f 49f
10:54 3 5 mph 1015.5mb 60f 49f
10:48 3
mph
1015.5mb 60f 49f
9:54 3 6 mph 1015.6mb 60f 49f
9:48  -  mph 1015.5mb 60f 49f
9:30  -  mph - 61f -
9:24  -  mph - 61f -
9:18 5
mph
- - -
9:12 5 6 mph - - -
9:06 3 5 mph - - -
9:00 5 6 mph - - -
8:54 3 5 mph - - -
8:48  -  mph - 61f 50f
8:42  -  mph - 61f 51f
8:36  -  mph - 61f 51f
8:30 3 5 mph 1015.5mb 61f 51f
8:24 3 5 mph 1015.5mb 61f 51f
8:18 3 6 mph 1015.4mb 61f 51f
8:12 3 5 mph 1015.5mb 62f 51f
8:06 3 6 mph 1015.5mb 62f 51f
8:00 3 6 mph 1015.4mb 62f 51f
7:54 5 6 mph 1015.4mb 62f 51f
7:48 5 6 mph 1015.3mb 62f 52f
7:42 5 7 mph 1015.3mb 62f 52f
7:36 5 6 mph 1015.3mb 62f 52f
7:30 3 5 mph 1015.3mb 62f 52f
7:24 3 5 mph 1015.2mb 62f 52f
7:18 3 6 mph 1015.2mb 62f 53f
7:12 2 5 mph 1015.2mb 62f 53f
7:06 3 6 mph 1015.2mb 62f 53f
7:00 6 7 mph 1015.2mb 62f 53f
6:54 3 6 mph 1015.2mb 62f 53f
6:48 5 6 mph 1015.2mb 62f 53f
6:42 6 8 mph 1015.2mb 62f 53f
6:36 6 9 mph 1015.1mb 62f 54f
6:30 7 8 mph 1015mb 62f 54f
6:24 7 9 mph 1014.9mb 62f 54f
6:18 7 10 mph 1015mb 62f 54f
6:12 7 8 mph 1014.9mb 62f 54f
6:06 7 13 mph 1014.8mb 62f 54f
6:00 8 13 mph 1014.9mb 62f 54f
5:54 3 8 mph 1014.9mb 62f 55f
5:48 8 9 mph 1014.9mb 62f 55f
5:42 8 10 mph 1014.9mb 62f 55f
5:36 6 10 mph 1014.7mb 62f 55f
5:30 7 10 mph 1014.8mb 62f 55f
5:24 7 14 mph 1014.8mb 62f 55f
5:18 6 10 mph 1014.9mb 62f 55f
5:12 8 13 mph 1014.7mb 62f 55f
5:06 10 15 mph 1014.6mb 62f 55f
5:00 8 13 mph 1014.7mb 62f 56f
4:54 6 15 mph 1014.6mb 62f 56f
4:48 10 17 mph 1014.7mb 62f 55f
4:42 13 17 mph 1014.7mb 62f 56f
4:36 9 14 mph 1014.8mb 62f 56f
4:30 9 16 mph 1014.8mb 62f 56f
4:24 10 15 mph 1014.7mb 62f 56f
4:18 9 14 mph 1014.7mb 62f 56f
4:12 10 15 mph 1014.7mb 62f 56f
4:06 8 16 mph 1014.8mb 62f 57f
4:00 16 21 mph 1014.9mb 62f 56f
3:54 13 17 mph 1014.9mb 62f 56f
3:48 9 15 mph 1014.9mb 62f 57f
3:42 8 15 mph 1014.8mb 62f 57f
3:36 10 17 mph 1014.8mb 62f 57f
3:30 9 13 mph 1014.7mb 62f 57f
3:24 10 15 mph 1014.7mb 62f 56f
3:18 11 13 mph 1014.7mb 61f 55f
3:12 8 14 mph 1014.8mb 61f 56f
3:06 8 10 mph 1014.8mb 61f 56f
3:00 8 13 mph 1014.8mb 61f 56f
2:54 7 14 mph 1015mb 61f 56f
2:48 8 13 mph 1015mb 61f 56f
2:42 7 14 mph 1015.1mb 61f 56f
2:36 8 13 mph 1015.1mb 61f 56f
2:30 8 15 mph 1015.2mb 61f 55f
2:24 15 18 mph 1015.2mb 61f 55f
2:18 13 18 mph 1015.2mb 61f 56f
2:12 10 14 mph 1015.2mb 61f 56f
2:06 6 14 mph 1015.2mb 61f 56f
2:00 11 16 mph 1015.1mb 61f 56f
1:54 9 17 mph 1015.3mb 61f 56f